sensor_id;sensor_type;location;lat;lon;timestamp;temperature;humidity
1806;DHT22;901;48.142;11.516;2022-11-20T00:01:05;6.50;99.90
1806;DHT22;901;48.142;11.516;2022-11-20T00:03:32;6.50;99.90
1806;DHT22;901;48.142;11.516;2022-11-20T00:06:01;6.60;99.90
1806;DHT22;901;48.142;11.516;2022-11-20T00:08:28;6.60;99.90
1806;DHT22;901;48.142;11.516;2022-11-20T00:10:55;6.70;99.90
1806;DHT22;901;48.142;11.516;2022-11-20T00:13:22;6.70;99.90
1806;DHT22;901;48.142;11.516;2022-11-20T00:15:52;6.60;99.90
1806;DHT22;901;48.142;11.516;2022-11-20T00:18:22;6.60;99.90
1806;DHT22;901;48.142;11.516;2022-11-20T00:20:49;6.60;99.90
1806;DHT22;901;48.142;11.516;2022-11-20T00:23:17;6.60;99.90
1806;DHT22;901;48.142;11.516;2022-11-20T00:25:44;6.70;99.90
1806;DHT22;901;48.142;11.516;2022-11-20T00:28:11;6.70;99.90
1806;DHT22;901;48.142;11.516;2022-11-20T00:30:38;6.70;99.90
1806;DHT22;901;48.142;11.516;2022-11-20T00:33:05;6.70;99.90
1806;DHT22;901;48.142;11.516;2022-11-20T00:35:31;6.70;99.90
1806;DHT22;901;48.142;11.516;2022-11-20T00:37:58;6.70;99.90
1806;DHT22;901;48.142;11.516;2022-11-20T00:40:26;6.70;99.90
1806;DHT22;901;48.142;11.516;2022-11-20T00:42:53;6.70;99.90
1806;DHT22;901;48.142;11.516;2022-11-20T00:45:20;6.60;99.90
1806;DHT22;901;48.142;11.516;2022-11-20T00:47:47;6.70;99.90
1806;DHT22;901;48.142;11.516;2022-11-20T00:50:14;6.70;99.90
1806;DHT22;901;48.142;11.516;2022-11-20T00:52:41;6.60;99.90
1806;DHT22;901;48.142;11.516;2022-11-20T00:55:08;6.70;99.90
1806;DHT22;901;48.142;11.516;2022-11-20T00:57:36;6.60;99.90
1806;DHT22;901;48.142;11.516;2022-11-20T01:00:03;6.70;99.90
1806;DHT22;901;48.142;11.516;2022-11-20T01:02:30;6.60;99.90
1806;DHT22;901;48.142;11.516;2022-11-20T01:04:57;6.70;99.90
1806;DHT22;901;48.142;11.516;2022-11-20T01:07:24;6.70;99.90
1806;DHT22;901;48.142;11.516;2022-11-20T01:09:51;6.70;99.90
1806;DHT22;901;48.142;11.516;2022-11-20T01:12:18;6.70;99.90
1806;DHT22;901;48.142;11.516;2022-11-20T01:14:47;6.70;99.90
1806;DHT22;901;48.142;11.516;2022-11-20T01:17:13;6.70;99.90
1806;DHT22;901;48.142;11.516;2022-11-20T01:19:40;6.70;99.90
1806;DHT22;901;48.142;11.516;2022-11-20T01:22:07;6.70;99.90
1806;DHT22;901;48.142;11.516;2022-11-20T01:24:34;6.70;99.90
1806;DHT22;901;48.142;11.516;2022-11-20T01:27:01;6.70;99.90
1806;DHT22;901;48.142;11.516;2022-11-20T01:29:28;6.80;99.90
1806;DHT22;901;48.142;11.516;2022-11-20T01:31:56;6.70;99.90
1806;DHT22;901;48.142;11.516;2022-11-20T01:34:23;6.80;99.90
1806;DHT22;901;48.142;11.516;2022-11-20T01:36:51;6.80;99.90
1806;DHT22;901;48.142;11.516;2022-11-20T01:39:19;6.70;99.90
1806;DHT22;901;48.142;11.516;2022-11-20T01:41:46;6.80;99.90
1806;DHT22;901;48.142;11.516;2022-11-20T01:44:52;6.70;99.90
1806;DHT22;901;48.142;11.516;2022-11-20T01:47:25;6.80;99.90
1806;DHT22;901;48.142;11.516;2022-11-20T01:49:56;6.70;99.90
1806;DHT22;901;48.142;11.516;2022-11-20T01:52:25;6.80;99.90
1806;DHT22;901;48.142;11.516;2022-11-20T01:54:57;6.80;99.90
1806;DHT22;901;48.142;11.516;2022-11-20T01:57:28;6.80;99.90
1806;DHT22;901;48.142;11.516;2022-11-20T02:00:00;6.80;99.90
1806;DHT22;901;48.142;11.516;2022-11-20T02:02:29;6.80;99.90
1806;DHT22;901;48.142;11.516;2022-11-20T02:05:00;6.70;99.90
1806;DHT22;901;48.142;11.516;2022-11-20T02:07:29;6.70;99.90
1806;DHT22;901;48.142;11.516;2022-11-20T02:09:57;6.70;99.90
1806;DHT22;901;48.142;11.516;2022-11-20T02:12:24;6.70;99.90
1806;DHT22;901;48.142;11.516;2022-11-20T02:15:09;6.70;99.90
1806;DHT22;901;48.142;11.516;2022-11-20T02:17:37;6.70;99.90
1806;DHT22;901;48.142;11.516;2022-11-20T02:20:05;6.70;99.90
1806;DHT22;901;48.142;11.516;2022-11-20T02:22:37;6.70;99.90
1806;DHT22;901;48.142;11.516;2022-11-20T02:25:10;6.70;99.90
1806;DHT22;901;48.142;11.516;2022-11-20T02:27:37;6.70;99.90
1806;DHT22;901;48.142;11.516;2022-11-20T02:30:06;6.70;99.90
1806;DHT22;901;48.142;11.516;2022-11-20T02:32:34;6.60;99.90
1806;DHT22;901;48.142;11.516;2022-11-20T02:35:07;6.60;99.90
1806;DHT22;901;48.142;11.516;2022-11-20T02:37:36;6.70;99.90
1806;DHT22;901;48.142;11.516;2022-11-20T02:40:04;6.60;99.90
1806;DHT22;901;48.142;11.516;2022-11-20T02:42:32;6.60;99.90
1806;DHT22;901;48.142;11.516;2022-11-20T02:44:59;6.60;99.90
1806;DHT22;901;48.142;11.516;2022-11-20T02:47:26;6.60;99.90
1806;DHT22;901;48.142;11.516;2022-11-20T02:49:53;6.60;99.90
1806;DHT22;901;48.142;11.516;2022-11-20T02:52:20;6.60;99.90
1806;DHT22;901;48.142;11.516;2022-11-20T02:54:46;6.60;99.90
1806;DHT22;901;48.142;11.516;2022-11-20T02:57:13;6.60;99.90
1806;DHT22;901;48.142;11.516;2022-11-20T02:59:42;6.60;99.90
1806;DHT22;901;48.142;11.516;2022-11-20T03:02:09;6.60;99.90
1806;DHT22;901;48.142;11.516;2022-11-20T03:04:35;6.60;99.90
1806;DHT22;901;48.142;11.516;2022-11-20T03:07:03;6.50;99.90
1806;DHT22;901;48.142;11.516;2022-11-20T03:09:30;6.60;99.90
1806;DHT22;901;48.142;11.516;2022-11-20T03:11:57;6.50;99.90
1806;DHT22;901;48.142;11.516;2022-11-20T03:14:24;6.50;99.90
1806;DHT22;901;48.142;11.516;2022-11-20T03:16:52;6.60;99.90
1806;DHT22;901;48.142;11.516;2022-11-20T03:19:19;6.50;99.90
1806;DHT22;901;48.142;11.516;2022-11-20T03:21:45;6.60;99.90
1806;DHT22;901;48.142;11.516;2022-11-20T03:24:13;6.60;99.90
1806;DHT22;901;48.142;11.516;2022-11-20T03:26:40;6.60;99.90
1806;DHT22;901;48.142;11.516;2022-11-20T03:29:07;6.60;99.90
1806;DHT22;901;48.142;11.516;2022-11-20T03:31:36;6.60;99.90
1806;DHT22;901;48.142;11.516;2022-11-20T03:34:04;6.60;99.90
1806;DHT22;901;48.142;11.516;2022-11-20T03:36:31;6.60;99.90
1806;DHT22;901;48.142;11.516;2022-11-20T03:38:59;6.60;99.90
1806;DHT22;901;48.142;11.516;2022-11-20T03:41:27;6.60;99.90
1806;DHT22;901;48.142;11.516;2022-11-20T03:43:56;6.60;99.90
1806;DHT22;901;48.142;11.516;2022-11-20T03:46:23;6.60;99.90
1806;DHT22;901;48.142;11.516;2022-11-20T03:48:51;6.60;99.90
1806;DHT22;901;48.142;11.516;2022-11-20T03:51:20;6.50;99.90
1806;DHT22;901;48.142;11.516;2022-11-20T03:53:49;6.50;99.90
1806;DHT22;901;48.142;11.516;2022-11-20T03:56:19;6.60;99.90
1806;DHT22;901;48.142;11.516;2022-11-20T03:58:46;6.60;99.90
1806;DHT22;901;48.142;11.516;2022-11-20T04:01:15;6.50;99.90
1806;DHT22;901;48.142;11.516;2022-11-20T04:03:43;6.50;99.90
1806;DHT22;901;48.142;11.516;2022-11-20T04:06:12;6.50;99.90
1806;DHT22;901;48.142;11.516;2022-11-20T04:08:41;6.50;99.90
1806;DHT22;901;48.142;11.516;2022-11-20T04:11:09;6.50;99.90
1806;DHT22;901;48.142;11.516;2022-11-20T04:13:36;6.50;99.90
1806;DHT22;901;48.142;11.516;2022-11-20T04:16:04;6.50;99.90
1806;DHT22;901;48.142;11.516;2022-11-20T04:18:31;6.50;99.90
1806;DHT22;901;48.142;11.516;2022-11-20T04:20:58;6.50;99.90
1806;DHT22;901;48.142;11.516;2022-11-20T04:23:26;6.50;99.90
1806;DHT22;901;48.142;11.516;2022-11-20T04:26:00;6.50;99.90
1806;DHT22;901;48.142;11.516;2022-11-20T04:28:27;6.50;99.90
1806;DHT22;901;48.142;11.516;2022-11-20T04:30:54;6.50;99.90
1806;DHT22;901;48.142;11.516;2022-11-20T04:33:21;6.50;99.90
1806;DHT22;901;48.142;11.516;2022-11-20T04:35:48;6.40;99.90
1806;DHT22;901;48.142;11.516;2022-11-20T04:38:14;6.50;99.90
1806;DHT22;901;48.142;11.516;2022-11-20T04:40:41;6.50;99.90
1806;DHT22;901;48.142;11.516;2022-11-20T04:43:09;6.50;99.90
1806;DHT22;901;48.142;11.516;2022-11-20T04:45:36;6.50;99.90
1806;DHT22;901;48.142;11.516;2022-11-20T04:48:03;6.50;99.90
1806;DHT22;901;48.142;11.516;2022-11-20T04:50:30;6.50;99.90
1806;DHT22;901;48.142;11.516;2022-11-20T04:52:57;6.50;99.90
1806;DHT22;901;48.142;11.516;2022-11-20T04:55:24;6.50;99.90
1806;DHT22;901;48.142;11.516;2022-11-20T04:57:50;6.50;99.90
1806;DHT22;901;48.142;11.516;2022-11-20T05:00:19;6.50;99.90
1806;DHT22;901;48.142;11.516;2022-11-20T05:02:46;6.50;99.90
1806;DHT22;901;48.142;11.516;2022-11-20T05:05:12;6.50;99.90
1806;DHT22;901;48.142;11.516;2022-11-20T05:07:39;6.50;99.90
1806;DHT22;901;48.142;11.516;2022-11-20T05:10:07;6.50;99.90
1806;DHT22;901;48.142;11.516;2022-11-20T05:12:34;6.50;99.90
1806;DHT22;901;48.142;11.516;2022-11-20T05:15:00;6.50;99.90
1806;DHT22;901;48.142;11.516;2022-11-20T05:17:29;6.50;99.90
1806;DHT22;901;48.142;11.516;2022-11-20T05:19:55;6.50;99.90
1806;DHT22;901;48.142;11.516;2022-11-20T05:22:23;6.50;99.90
1806;DHT22;901;48.142;11.516;2022-11-20T05:24:49;6.40;99.90
1806;DHT22;901;48.142;11.516;2022-11-20T05:27:16;6.50;99.90
1806;DHT22;901;48.142;11.516;2022-11-20T05:29:43;6.50;99.90
1806;DHT22;901;48.142;11.516;2022-11-20T05:32:10;6.50;99.90
1806;DHT22;901;48.142;11.516;2022-11-20T05:34:38;6.50;99.90
1806;DHT22;901;48.142;11.516;2022-11-20T05:37:05;6.40;99.90
1806;DHT22;901;48.142;11.516;2022-11-20T05:39:31;6.40;99.90
1806;DHT22;901;48.142;11.516;2022-11-20T05:41:58;6.40;99.90
1806;DHT22;901;48.142;11.516;2022-11-20T05:44:39;6.30;99.90
1806;DHT22;901;48.142;11.516;2022-11-20T05:47:06;6.40;99.90
1806;DHT22;901;48.142;11.516;2022-11-20T05:49:33;6.30;99.90
1806;DHT22;901;48.142;11.516;2022-11-20T05:52:01;6.30;99.90
1806;DHT22;901;48.142;11.516;2022-11-20T05:54:28;6.40;99.90
1806;DHT22;901;48.142;11.516;2022-11-20T05:56:55;6.30;99.90
1806;DHT22;901;48.142;11.516;2022-11-20T05:59:21;6.30;99.90
1806;DHT22;901;48.142;11.516;2022-11-20T06:01:48;6.20;99.90
1806;DHT22;901;48.142;11.516;2022-11-20T06:04:15;6.20;99.90
1806;DHT22;901;48.142;11.516;2022-11-20T06:06:42;6.20;99.90
1806;DHT22;901;48.142;11.516;2022-11-20T06:09:10;6.20;99.90
1806;DHT22;901;48.142;11.516;2022-11-20T06:11:37;6.10;99.90
1806;DHT22;901;48.142;11.516;2022-11-20T06:14:04;6.10;99.90
1806;DHT22;901;48.142;11.516;2022-11-20T06:16:30;6.00;99.90
1806;DHT22;901;48.142;11.516;2022-11-20T06:18:57;6.00;99.90
1806;DHT22;901;48.142;11.516;2022-11-20T06:21:24;5.90;99.90
1806;DHT22;901;48.142;11.516;2022-11-20T06:23:52;5.80;99.90
1806;DHT22;901;48.142;11.516;2022-11-20T06:26:22;5.70;99.90
1806;DHT22;901;48.142;11.516;2022-11-20T06:28:49;5.70;99.90
1806;DHT22;901;48.142;11.516;2022-11-20T06:31:18;5.60;99.90
1806;DHT22;901;48.142;11.516;2022-11-20T06:33:46;5.60;99.90
1806;DHT22;901;48.142;11.516;2022-11-20T06:36:14;5.50;99.90
1806;DHT22;901;48.142;11.516;2022-11-20T06:38:42;5.50;99.90
1806;DHT22;901;48.142;11.516;2022-11-20T06:41:12;5.60;99.90
1806;DHT22;901;48.142;11.516;2022-11-20T06:43:42;5.60;99.90
1806;DHT22;901;48.142;11.516;2022-11-20T06:46:10;5.70;99.90
1806;DHT22;901;48.142;11.516;2022-11-20T06:48:37;5.70;99.90
1806;DHT22;901;48.142;11.516;2022-11-20T06:51:05;5.70;99.90
1806;DHT22;901;48.142;11.516;2022-11-20T06:53:32;5.80;99.90
1806;DHT22;901;48.142;11.516;2022-11-20T06:55:59;5.80;99.90
1806;DHT22;901;48.142;11.516;2022-11-20T06:58:27;5.80;99.90
1806;DHT22;901;48.142;11.516;2022-11-20T07:00:58;5.90;99.90
1806;DHT22;901;48.142;11.516;2022-11-20T07:03:24;6.00;99.90
1806;DHT22;901;48.142;11.516;2022-11-20T07:05:53;6.00;99.90
1806;DHT22;901;48.142;11.516;2022-11-20T07:08:20;6.10;99.90
1806;DHT22;901;48.142;11.516;2022-11-20T07:10:47;6.20;99.90
1806;DHT22;901;48.142;11.516;2022-11-20T07:13:14;6.30;99.90
1806;DHT22;901;48.142;11.516;2022-11-20T07:15:40;6.30;99.90
1806;DHT22;901;48.142;11.516;2022-11-20T07:18:09;6.30;99.90
1806;DHT22;901;48.142;11.516;2022-11-20T07:20:36;6.40;99.90
1806;DHT22;901;48.142;11.516;2022-11-20T07:23:03;6.40;99.90
1806;DHT22;901;48.142;11.516;2022-11-20T07:25:30;6.40;99.90
1806;DHT22;901;48.142;11.516;2022-11-20T07:27:57;6.50;99.90
1806;DHT22;901;48.142;11.516;2022-11-20T07:30:24;6.60;99.90
1806;DHT22;901;48.142;11.516;2022-11-20T07:32:52;6.60;99.90
1806;DHT22;901;48.142;11.516;2022-11-20T07:35:20;6.60;99.90
1806;DHT22;901;48.142;11.516;2022-11-20T07:37:48;6.70;99.90
1806;DHT22;901;48.142;11.516;2022-11-20T07:40:15;6.70;99.90
1806;DHT22;901;48.142;11.516;2022-11-20T07:42:47;6.70;99.90
1806;DHT22;901;48.142;11.516;2022-11-20T07:45:14;6.80;99.90
1806;DHT22;901;48.142;11.516;2022-11-20T07:47:42;6.80;99.90
1806;DHT22;901;48.142;11.516;2022-11-20T07:50:09;6.90;99.90
1806;DHT22;901;48.142;11.516;2022-11-20T07:52:38;6.80;99.90
1806;DHT22;901;48.142;11.516;2022-11-20T07:55:06;6.90;99.90
1806;DHT22;901;48.142;11.516;2022-11-20T07:57:33;6.90;99.90
1806;DHT22;901;48.142;11.516;2022-11-20T07:59:59;7.00;99.90
1806;DHT22;901;48.142;11.516;2022-11-20T08:02:26;7.10;99.90
1806;DHT22;901;48.142;11.516;2022-11-20T08:04:53;7.10;99.90
1806;DHT22;901;48.142;11.516;2022-11-20T08:07:20;7.10;99.90
1806;DHT22;901;48.142;11.516;2022-11-20T08:09:48;7.20;99.90
1806;DHT22;901;48.142;11.516;2022-11-20T08:12:18;7.20;99.90
1806;DHT22;901;48.142;11.516;2022-11-20T08:14:59;7.30;99.90
1806;DHT22;901;48.142;11.516;2022-11-20T08:17:25;7.30;99.90
1806;DHT22;901;48.142;11.516;2022-11-20T08:19:52;7.30;99.90
1806;DHT22;901;48.142;11.516;2022-11-20T08:22:19;7.40;99.90
1806;DHT22;901;48.142;11.516;2022-11-20T08:24:47;7.40;99.90
1806;DHT22;901;48.142;11.516;2022-11-20T08:27:14;7.40;99.90
1806;DHT22;901;48.142;11.516;2022-11-20T08:29:41;7.40;99.90
1806;DHT22;901;48.142;11.516;2022-11-20T08:32:08;7.40;99.90
1806;DHT22;901;48.142;11.516;2022-11-20T08:34:34;7.50;99.90
1806;DHT22;901;48.142;11.516;2022-11-20T08:37:01;7.50;99.90
1806;DHT22;901;48.142;11.516;2022-11-20T08:39:28;7.60;99.90
1806;DHT22;901;48.142;11.516;2022-11-20T08:41:56;7.70;99.90
1806;DHT22;901;48.142;11.516;2022-11-20T08:44:23;7.80;99.90
1806;DHT22;901;48.142;11.516;2022-11-20T08:46:50;7.80;99.90
1806;DHT22;901;48.142;11.516;2022-11-20T08:49:17;8.00;99.90
1806;DHT22;901;48.142;11.516;2022-11-20T08:51:44;8.00;99.90
1806;DHT22;901;48.142;11.516;2022-11-20T08:54:13;8.10;99.90
1806;DHT22;901;48.142;11.516;2022-11-20T08:56:40;8.10;99.90
1806;DHT22;901;48.142;11.516;2022-11-20T08:59:08;8.10;99.90
1806;DHT22;901;48.142;11.516;2022-11-20T09:01:35;8.20;99.90
1806;DHT22;901;48.142;11.516;2022-11-20T09:04:02;8.30;99.90
1806;DHT22;901;48.142;11.516;2022-11-20T09:06:30;8.30;99.90
1806;DHT22;901;48.142;11.516;2022-11-20T09:08:56;8.30;99.90
1806;DHT22;901;48.142;11.516;2022-11-20T09:11:23;8.40;99.90
1806;DHT22;901;48.142;11.516;2022-11-20T09:13:50;8.40;99.90
1806;DHT22;901;48.142;11.516;2022-11-20T09:16:18;8.40;99.90
1806;DHT22;901;48.142;11.516;2022-11-20T09:18:45;8.40;99.90
1806;DHT22;901;48.142;11.516;2022-11-20T09:21:13;8.40;99.90
1806;DHT22;901;48.142;11.516;2022-11-20T09:23:40;8.50;99.90
1806;DHT22;901;48.142;11.516;2022-11-20T09:26:09;8.60;99.90
1806;DHT22;901;48.142;11.516;2022-11-20T09:28:36;8.70;99.90
1806;DHT22;901;48.142;11.516;2022-11-20T09:31:05;8.80;99.90
1806;DHT22;901;48.142;11.516;2022-11-20T09:33:33;8.90;99.90
1806;DHT22;901;48.142;11.516;2022-11-20T09:36:01;9.00;99.90
1806;DHT22;901;48.142;11.516;2022-11-20T09:38:28;8.90;99.90
1806;DHT22;901;48.142;11.516;2022-11-20T09:40:57;9.00;99.90
1806;DHT22;901;48.142;11.516;2022-11-20T09:43:30;9.00;99.90
1806;DHT22;901;48.142;11.516;2022-11-20T09:46:06;9.10;99.90
1806;DHT22;901;48.142;11.516;2022-11-20T09:49:15;9.20;99.90
1806;DHT22;901;48.142;11.516;2022-11-20T09:51:49;9.20;99.90
1806;DHT22;901;48.142;11.516;2022-11-20T09:54:21;9.30;99.90
1806;DHT22;901;48.142;11.516;2022-11-20T09:56:50;9.30;99.90
1806;DHT22;901;48.142;11.516;2022-11-20T09:59:33;9.50;99.90
1806;DHT22;901;48.142;11.516;2022-11-20T10:02:02;9.60;99.90
1806;DHT22;901;48.142;11.516;2022-11-20T10:04:47;9.80;99.90
1806;DHT22;901;48.142;11.516;2022-11-20T10:07:20;9.90;99.90
1806;DHT22;901;48.142;11.516;2022-11-20T10:09:52;9.80;99.90
1806;DHT22;901;48.142;11.516;2022-11-20T10:12:27;9.90;99.90
1806;DHT22;901;48.142;11.516;2022-11-20T10:15:05;10.00;99.90
1806;DHT22;901;48.142;11.516;2022-11-20T10:17:58;10.00;99.90
1806;DHT22;901;48.142;11.516;2022-11-20T10:20:35;10.00;99.90
1806;DHT22;901;48.142;11.516;2022-11-20T10:26:04;10.00;99.90
1806;DHT22;901;48.142;11.516;2022-11-20T10:28:48;9.90;99.90
1806;DHT22;901;48.142;11.516;2022-11-20T10:31:28;9.80;99.90
1806;DHT22;901;48.142;11.516;2022-11-20T10:33:57;9.80;99.90
1806;DHT22;901;48.142;11.516;2022-11-20T10:36:33;9.80;99.90
1806;DHT22;901;48.142;11.516;2022-11-20T10:39:05;9.80;99.90
1806;DHT22;901;48.142;11.516;2022-11-20T10:41:38;9.90;99.90
1806;DHT22;901;48.142;11.516;2022-11-20T10:44:14;10.00;99.90
1806;DHT22;901;48.142;11.516;2022-11-20T10:47:01;10.00;99.90
1806;DHT22;901;48.142;11.516;2022-11-20T10:49:28;9.90;99.90
1806;DHT22;901;48.142;11.516;2022-11-20T10:52:04;9.90;99.90
1806;DHT22;901;48.142;11.516;2022-11-20T10:54:38;10.00;99.90
1806;DHT22;901;48.142;11.516;2022-11-20T10:57:17;10.00;99.90
1806;DHT22;901;48.142;11.516;2022-11-20T11:00:00;10.00;99.90
1806;DHT22;901;48.142;11.516;2022-11-20T11:02:34;10.00;99.90
1806;DHT22;901;48.142;11.516;2022-11-20T11:07:52;10.00;99.90
1806;DHT22;901;48.142;11.516;2022-11-20T11:10:24;10.00;99.90
1806;DHT22;901;48.142;11.516;2022-11-20T11:12:52;10.20;99.90
1806;DHT22;901;48.142;11.516;2022-11-20T11:15:27;10.10;99.90
1806;DHT22;901;48.142;11.516;2022-11-20T11:17:54;9.90;99.90
1806;DHT22;901;48.142;11.516;2022-11-20T11:20:22;9.60;99.90
1806;DHT22;901;48.142;11.516;2022-11-20T11:22:53;9.50;99.90
1806;DHT22;901;48.142;11.516;2022-11-20T11:25:26;9.50;99.90
1806;DHT22;901;48.142;11.516;2022-11-20T11:27:55;9.60;99.90
1806;DHT22;901;48.142;11.516;2022-11-20T11:30:24;9.60;99.90
1806;DHT22;901;48.142;11.516;2022-11-20T11:33:01;9.70;99.90
1806;DHT22;901;48.142;11.516;2022-11-20T11:35:28;9.70;99.90
1806;DHT22;901;48.142;11.516;2022-11-20T11:38:05;9.70;99.90
1806;DHT22;901;48.142;11.516;2022-11-20T11:40:35;9.90;99.90
1806;DHT22;901;48.142;11.516;2022-11-20T11:43:06;10.00;99.90
1806;DHT22;901;48.142;11.516;2022-11-20T11:45:55;9.80;99.90
1806;DHT22;901;48.142;11.516;2022-11-20T11:48:21;9.70;99.90
1806;DHT22;901;48.142;11.516;2022-11-20T11:50:49;9.60;99.90
1806;DHT22;901;48.142;11.516;2022-11-20T11:53:20;9.60;99.90
1806;DHT22;901;48.142;11.516;2022-11-20T11:55:54;9.60;99.90
1806;DHT22;901;48.142;11.516;2022-11-20T11:58:40;9.40;99.90
1806;DHT22;901;48.142;11.516;2022-11-20T12:01:20;9.40;99.90
1806;DHT22;901;48.142;11.516;2022-11-20T12:03:53;9.40;99.90
1806;DHT22;901;48.142;11.516;2022-11-20T12:06:22;9.30;99.90
1806;DHT22;901;48.142;11.516;2022-11-20T12:08:55;9.10;99.90
1806;DHT22;901;48.142;11.516;2022-11-20T12:11:30;8.60;99.90
1806;DHT22;901;48.142;11.516;2022-11-20T12:14:00;8.40;99.90
1806;DHT22;901;48.142;11.516;2022-11-20T12:16:30;8.20;99.90
1806;DHT22;901;48.142;11.516;2022-11-20T12:19:00;8.30;99.90
1806;DHT22;901;48.142;11.516;2022-11-20T12:21:32;8.30;99.90
1806;DHT22;901;48.142;11.516;2022-11-20T12:24:11;8.30;99.90
1806;DHT22;901;48.142;11.516;2022-11-20T12:26:54;8.30;99.90
1806;DHT22;901;48.142;11.516;2022-11-20T12:29:30;8.30;99.90
1806;DHT22;901;48.142;11.516;2022-11-20T12:32:15;8.40;99.90
1806;DHT22;901;48.142;11.516;2022-11-20T12:34:57;8.30;99.90
1806;DHT22;901;48.142;11.516;2022-11-20T12:37:36;8.20;99.90
1806;DHT22;901;48.142;11.516;2022-11-20T12:40:18;8.20;99.90
1806;DHT22;901;48.142;11.516;2022-11-20T12:42:56;8.30;99.90
1806;DHT22;901;48.142;11.516;2022-11-20T12:45:58;8.30;99.90
1806;DHT22;901;48.142;11.516;2022-11-20T12:48:51;8.40;99.90
1806;DHT22;901;48.142;11.516;2022-11-20T12:51:39;8.40;99.90
1806;DHT22;901;48.142;11.516;2022-11-20T12:54:44;8.40;99.90
1806;DHT22;901;48.142;11.516;2022-11-20T12:57:20;8.50;99.90
1806;DHT22;901;48.142;11.516;2022-11-20T13:00:00;8.50;99.90
1806;DHT22;901;48.142;11.516;2022-11-20T13:02:36;8.50;99.90
1806;DHT22;901;48.142;11.516;2022-11-20T13:05:19;8.40;99.90
1806;DHT22;901;48.142;11.516;2022-11-20T13:07:48;8.30;99.90
1806;DHT22;901;48.142;11.516;2022-11-20T13:10:20;8.40;99.90
1806;DHT22;901;48.142;11.516;2022-11-20T13:12:56;8.30;99.90
1806;DHT22;901;48.142;11.516;2022-11-20T13:15:38;8.40;99.90
1806;DHT22;901;48.142;11.516;2022-11-20T13:18:10;8.40;99.90
1806;DHT22;901;48.142;11.516;2022-11-20T13:20:42;8.30;99.90
1806;DHT22;901;48.142;11.516;2022-11-20T13:23:10;8.20;99.90
1806;DHT22;901;48.142;11.516;2022-11-20T13:25:38;8.20;99.90
1806;DHT22;901;48.142;11.516;2022-11-20T13:28:28;8.10;99.90
1806;DHT22;901;48.142;11.516;2022-11-20T13:30:57;8.10;99.90
1806;DHT22;901;48.142;11.516;2022-11-20T13:33:28;8.10;99.90
1806;DHT22;901;48.142;11.516;2022-11-20T13:35:58;8.10;99.90
1806;DHT22;901;48.142;11.516;2022-11-20T13:38:25;8.10;99.90
1806;DHT22;901;48.142;11.516;2022-11-20T13:40:54;8.10;99.90
1806;DHT22;901;48.142;11.516;2022-11-20T13:43:28;8.10;99.90
1806;DHT22;901;48.142;11.516;2022-11-20T13:46:00;8.20;99.90
1806;DHT22;901;48.142;11.516;2022-11-20T13:48:30;8.20;99.90
1806;DHT22;901;48.142;11.516;2022-11-20T13:51:09;8.10;99.90
1806;DHT22;901;48.142;11.516;2022-11-20T13:56:38;8.30;99.90
1806;DHT22;901;48.142;11.516;2022-11-20T13:59:16;8.20;99.90
1806;DHT22;901;48.142;11.516;2022-11-20T14:01:46;8.20;99.90
1806;DHT22;901;48.142;11.516;2022-11-20T14:04:18;8.10;99.90
1806;DHT22;901;48.142;11.516;2022-11-20T14:06:48;8.00;99.90
1806;DHT22;901;48.142;11.516;2022-11-20T14:09:25;8.00;99.90
1806;DHT22;901;48.142;11.516;2022-11-20T14:11:52;7.90;99.90
1806;DHT22;901;48.142;11.516;2022-11-20T14:14:22;7.90;99.90
1806;DHT22;901;48.142;11.516;2022-11-20T14:16:50;7.80;99.90
1806;DHT22;901;48.142;11.516;2022-11-20T14:19:27;8.00;99.90
1806;DHT22;901;48.142;11.516;2022-11-20T14:22:08;7.90;99.90
1806;DHT22;901;48.142;11.516;2022-11-20T14:24:36;8.00;99.90
1806;DHT22;901;48.142;11.516;2022-11-20T14:27:03;8.00;99.90
1806;DHT22;901;48.142;11.516;2022-11-20T14:29:35;7.90;99.90
1806;DHT22;901;48.142;11.516;2022-11-20T14:32:03;8.00;99.90
1806;DHT22;901;48.142;11.516;2022-11-20T14:34:32;8.00;99.90
1806;DHT22;901;48.142;11.516;2022-11-20T14:37:04;7.90;99.90
1806;DHT22;901;48.142;11.516;2022-11-20T14:39:33;7.90;99.90
1806;DHT22;901;48.142;11.516;2022-11-20T14:42:01;7.80;99.90
1806;DHT22;901;48.142;11.516;2022-11-20T14:44:32;7.80;99.90
1806;DHT22;901;48.142;11.516;2022-11-20T14:47:00;7.70;99.90
1806;DHT22;901;48.142;11.516;2022-11-20T14:49:30;7.70;99.90
1806;DHT22;901;48.142;11.516;2022-11-20T14:52:09;7.80;99.90
1806;DHT22;901;48.142;11.516;2022-11-20T14:54:43;7.80;99.90
1806;DHT22;901;48.142;11.516;2022-11-20T14:57:21;7.70;99.90
1806;DHT22;901;48.142;11.516;2022-11-20T14:59:49;7.60;99.90
1806;DHT22;901;48.142;11.516;2022-11-20T15:02:16;7.70;99.90
1806;DHT22;901;48.142;11.516;2022-11-20T15:04:47;7.60;99.90
1806;DHT22;901;48.142;11.516;2022-11-20T15:07:24;7.50;99.90
1806;DHT22;901;48.142;11.516;2022-11-20T15:10:00;7.50;99.90
1806;DHT22;901;48.142;11.516;2022-11-20T15:12:27;7.40;99.90
1806;DHT22;901;48.142;11.516;2022-11-20T15:14:56;7.40;99.90
1806;DHT22;901;48.142;11.516;2022-11-20T15:17:23;7.40;99.90
1806;DHT22;901;48.142;11.516;2022-11-20T15:19:51;7.30;99.90
1806;DHT22;901;48.142;11.516;2022-11-20T15:22:18;7.30;99.90
1806;DHT22;901;48.142;11.516;2022-11-20T15:24:45;7.30;99.90
1806;DHT22;901;48.142;11.516;2022-11-20T15:27:12;7.20;99.90
1806;DHT22;901;48.142;11.516;2022-11-20T15:29:39;7.20;99.90
1806;DHT22;901;48.142;11.516;2022-11-20T15:32:09;7.20;99.90
1806;DHT22;901;48.142;11.516;2022-11-20T15:34:36;7.20;99.90
1806;DHT22;901;48.142;11.516;2022-11-20T15:37:02;7.10;99.90
1806;DHT22;901;48.142;11.516;2022-11-20T15:39:29;7.20;99.90
1806;DHT22;901;48.142;11.516;2022-11-20T15:41:56;7.20;99.90
1806;DHT22;901;48.142;11.516;2022-11-20T15:44:23;7.10;99.90
1806;DHT22;901;48.142;11.516;2022-11-20T15:46:50;7.10;99.90
1806;DHT22;901;48.142;11.516;2022-11-20T15:49:18;7.00;99.90
1806;DHT22;901;48.142;11.516;2022-11-20T15:51:48;6.90;99.90
1806;DHT22;901;48.142;11.516;2022-11-20T15:54:17;6.70;99.90
1806;DHT22;901;48.142;11.516;2022-11-20T15:56:45;6.60;99.90
1806;DHT22;901;48.142;11.516;2022-11-20T15:59:12;6.60;99.90
1806;DHT22;901;48.142;11.516;2022-11-20T16:01:40;6.60;99.90
1806;DHT22;901;48.142;11.516;2022-11-20T16:04:10;6.50;99.90
1806;DHT22;901;48.142;11.516;2022-11-20T16:06:39;6.40;99.90
1806;DHT22;901;48.142;11.516;2022-11-20T16:09:06;6.40;99.90
1806;DHT22;901;48.142;11.516;2022-11-20T16:11:33;6.30;99.90
1806;DHT22;901;48.142;11.516;2022-11-20T16:14:00;6.30;99.90
1806;DHT22;901;48.142;11.516;2022-11-20T16:16:45;6.20;99.90
1806;DHT22;901;48.142;11.516;2022-11-20T16:19:12;6.00;99.90
1806;DHT22;901;48.142;11.516;2022-11-20T16:21:42;5.90;99.90
1806;DHT22;901;48.142;11.516;2022-11-20T16:24:11;5.80;99.90
1806;DHT22;901;48.142;11.516;2022-11-20T16:26:38;5.80;99.90
1806;DHT22;901;48.142;11.516;2022-11-20T16:29:06;5.70;99.90
1806;DHT22;901;48.142;11.516;2022-11-20T16:31:33;5.60;99.90
1806;DHT22;901;48.142;11.516;2022-11-20T16:34:02;5.50;99.90
1806;DHT22;901;48.142;11.516;2022-11-20T16:36:29;5.50;99.90
1806;DHT22;901;48.142;11.516;2022-11-20T16:38:59;5.40;99.90
1806;DHT22;901;48.142;11.516;2022-11-20T16:41:28;5.30;99.90
1806;DHT22;901;48.142;11.516;2022-11-20T16:43:57;5.30;99.90